New Orleans, LA (70176)

3:38 PM CDT on October 01, 2014 (GMT -0500)
SnoWizard - Magazine St | Change Station
CLOSE
Current Station
Personal Weather Station
Location: New Orleans, LA
Elevation: 10 ft
Nearby Weather Stations

Elev 10 ft 29.92 °N, 90.10 °W | Updated 2 minutes ago

Overcast
Overcast
83.1 °F
Feels Like 92 °F
N
5.0
Wind Variable Wind from East
Gusts 13.0 mph

Today
High -- | Low -- °F
--% Chance of Precip.
Yesterday
High -- | Low -- °F
Precip. -- in
6:53 AM 6:45 PM
Waxing Crescent, 51% visible
Pressure 29.83 in
Visibility 10.0 miles
Clouds Few 2000 ft
Heat Index 92 °F
Dew Point 76 °F
Humidity 80%
Rainfall 0.16 in
Snow Depth Not available.
UV 4 out of 12
Pollen 6.70 out of 12
Ozone Good
PM2.5 Good
Flu Activity Not available.
METAR KNEW 302053Z 10008KT 10SM FEW020 29/21 A2985 RMK AO2 SLP100 T02940211 56018

More Conditions Fewer Conditions

Pressure 29.83 in
Visibility 10.0 miles
Clouds Few 2000 ft
Heat Index 92 °F
Dew Point 76 °F
Humidity 80%
Rainfall 0.16 in
Snow Depth Not available.
UV 4 out of 12
Pollen 6.70 out of 12
Ozone Good
PM2.5 Good
Flu Activity Not available.
METAR KNEW 302053Z 10008KT 10SM FEW020 29/21 A2985 RMK AO2 SLP100 T02940211 56018

More Conditions Fewer Conditions

10-Day Weather Forecast

Almanac

Astronomy

Oct. 01, 2014 Rise Set
Actual Time 6:53 AM CDT 6:45 PM CDT
Civil Twilight 6:29 AM CDT 7:09 PM CDT
Nautical Twilight 6:02 AM CDT 7:37 PM CDT
Astronomical Twilight 5:34 AM CDT 8:05 PM CDT
Moon 1:36 PM CDT No Moon Set
Length of Visible Light 12h 39m
Length of Day
11h 52m
Tomorrow will be 1m 47s shorter.
Waxing Crescent, 51% of the Moon is Illuminated
Today
Waxing Crescent
Oct 8
Full
Oct 15
Last Quarter
Oct 23
New
Oct 30
First Quarter

Today's Extremes

State Highs State Lows

Community

WunderPhotos

Upload Photos

1,758,037 photos uploaded!

WunderBlogs® & News

By Dr. Jeff Masters
Director of Meteorology, Weather Underground
By Kari Strenfel
Meteorologist, Weather Underground
By Christopher C. Burt
Weather Historian, Weather Underground
October 1, 2014
October 1, 2014
October 1, 2014

Nearby

Air Quality

  Air Quality AQ Index Pollutant
Yesterday Good
OZONE
Yesterday Good
PM2.5
Current Good
OZONE
Current Good
PM2.5
Wednesday Good
PM2.5
Wednesday Good
OZONE
Thursday Good
OZONE
Thursday Good
PM2.5
Friday Good
OZONE
Friday Good
PM2.5

Snow Depth

Station Depth Elevation
No new snow has been reported.

Earthquake Activity

City Distance Mag. Time & Date
No recent earthquake activity has been reported nearby.
Minimum magnitude displayed is 2.5.

Coastal Water Temperatures

Place Temperature
New Canal, LA 78.1 °F
Shell Beach, LA 75.9 °F
Bayou Gauche, LA 82.0 °F

Nearby Weather Stations